Time;durP1;ratioP1;P1;durP2;ratioP2;P2;SDS_P1;SDS_P2;PMS_P1;PMS_P2;Temp;Humidity;BMP_temperature;BMP_pressure;BME280_temperature;BME280_humidity;BME280_pressure;Samples;Min_cycle;Max_cycle;Signal;HPM_P1;HPM_P2
2024/01/31 00:01:37;;;;;;;8.77;1.40;;;;;;;;;;5054111;28;20448;-71
2024/01/31 00:04:02;;;;;;;6.03;1.27;;;34.90;24.50;;;;;;5054198;28;20524;-72
2024/01/31 00:06:28;;;;;;;9.82;1.17;;;34.50;24.90;;;;;;5054390;28;20033;-71
2024/01/31 00:08:57;;;;;;;7.55;1.60;;;;;;;;;;5053138;28;20048;-71
2024/01/31 00:11:28;;;;;;;6.03;1.40;;;;;;;;;;5054289;28;20041;-74
2024/01/31 00:13:55;;;;;;;10.05;1.42;;;34.80;27.40;;;;;;5054067;28;20412;-71
2024/01/31 00:16:21;;;;;;;12.18;1.75;;;34.80;28.10;;;;;;5054145;28;20107;-71
2024/01/31 00:18:46;;;;;;;10.52;1.50;;;34.40;28.50;;;;;;5052946;28;20045;-72
2024/01/31 00:21:12;;;;;;;10.30;2.13;;;;;;;;;;5054094;28;20408;-72
2024/01/31 00:23:38;;;;;;;8.30;1.30;;;34.60;28.60;;;;;;5054152;28;20128;-72
2024/01/31 00:26:04;;;;;;;8.20;1.48;;;;;;;;;;5054200;28;20504;-71
2024/01/31 00:28:30;;;;;;;5.07;1.33;;;;;;;;;;5053142;28;20045;-72
2024/01/31 00:30:55;;;;;;;11.55;1.55;;;34.40;26.10;;;;;;5053469;28;20039;-72
2024/01/31 00:33:21;;;;;;;9.27;1.40;;;34.80;25.50;;;;;;5053381;28;20083;-72
2024/01/31 00:35:46;;;;;;;4.70;1.23;;;34.70;24.60;;;;;;5053455;28;20033;-72
2024/01/31 00:38:12;;;;;;;6.93;1.70;;;;;;;;;;5052743;28;20512;-71
2024/01/31 00:40:38;;;;;;;4.95;1.20;;;;;;;;;;5054448;28;20082;-72
2024/01/31 00:43:05;;;;;;;7.15;1.30;;;;;;;;;;5052412;28;20043;-72
2024/01/31 00:45:30;;;;;;;4.78;1.00;;;34.50;21.70;;;;;;5053625;28;20074;-72
2024/01/31 00:47:56;;;;;;;7.70;2.53;;;34.40;21.70;;;;;;5052735;28;20410;-72
2024/01/31 00:50:22;;;;;;;5.30;1.20;;;;;;;;;;5053963;28;20094;-73
2024/01/31 00:52:47;;;;;;;5.75;1.25;;;34.80;21.30;;;;;;5053653;28;20102;-73
2024/01/31 00:55:14;;;;;;;9.02;1.10;;;;;;;;;;5052826;28;20382;-73
2024/01/31 00:57:40;;;;;;;4.25;1.17;;;34.60;12.30;;;;;;5052400;28;20037;-72
2024/01/31 01:00:09;;;;;;;11.75;1.83;;;34.70;9.90;;;;;;5052951;28;20033;-72
2024/01/31 01:02:40;;;;;;;5.68;0.95;;;34.50;7.90;;;;;;5053265;28;20039;-72
2024/01/31 01:05:07;;;;;;;13.32;1.80;;;34.60;5.10;;;;;;5052924;28;20500;-72
2024/01/31 01:07:33;;;;;;;7.38;1.17;;;;;;;;;;5052319;28;20040;-72
2024/01/31 01:09:59;;;;;;;7.03;1.35;;;34.60;8.20;;;;;;5053058;28;20045;-72
2024/01/31 01:12:25;;;;;;;10.70;2.55;;;;;;;;;;5052945;28;20083;-72
2024/01/31 01:14:50;;;;;;;4.82;0.93;;;34.80;7.40;;;;;;5052933;28;20036;-71
2024/01/31 01:17:16;;;;;;;9.05;1.27;;;;;;;;;;5052331;28;20049;-71
2024/01/31 01:19:42;;;;;;;10.95;1.40;;;34.70;9.20;;;;;;5052604;28;20047;-72
2024/01/31 01:22:07;;;;;;;6.70;1.10;;;34.80;10.50;;;;;;5053059;28;20109;-71
2024/01/31 01:24:33;;;;;;;8.93;1.38;;;34.40;10.50;;;;;;5053451;28;20029;-71
2024/01/31 01:26:59;;;;;;;5.78;1.45;;;34.40;10.20;;;;;;5052095;28;20032;-71
2024/01/31 01:29:24;;;;;;;10.75;1.27;;;34.80;8.60;;;;;;5052565;28;20802;-71
2024/01/31 01:31:50;;;;;;;5.47;1.23;;;35.00;8.70;;;;;;5052854;28;20428;-72
2024/01/31 01:34:15;;;;;;;7.40;0.90;;;34.60;9.40;;;;;;5052800;28;20033;-72
2024/01/31 01:36:44;;;;;;;5.15;0.95;;;;;;;;;;5051842;28;20128;-71
2024/01/31 01:39:10;;;;;;;4.82;1.35;;;;;;;;;;5051526;28;20064;-71
2024/01/31 01:41:36;;;;;;;5.22;0.85;;;;;;;;;;5052387;28;20544;-71
2024/01/31 01:44:02;;;;;;;4.47;1.00;;;;;;;;;;5052256;28;20068;-71
2024/01/31 01:46:32;;;;;;;8.35;1.20;;;;;;;;;;5052106;28;20028;-71
2024/01/31 01:48:58;;;;;;;13.45;1.65;;;;;;;;;;5051188;28;20472;-71
2024/01/31 01:51:25;;;;;;;7.65;1.63;;;;;;;;;;5052125;28;20037;-71
2024/01/31 01:53:51;;;;;;;7.43;1.10;;;34.70;1.00;;;;;;5048011;28;20049;-72
2024/01/31 01:56:18;;;;;;;7.55;1.10;;;34.50;1.00;;;;;;5048887;28;20041;-71
2024/01/31 01:58:47;;;;;;;5.50;1.27;;;34.40;1.00;;;;;;5051121;28;20045;-71
2024/01/31 02:01:14;;;;;;;9.82;1.30;;;34.50;1.00;;;;;;5048115;28;20032;-71
2024/01/31 02:03:41;;;;;;;6.78;1.02;;;34.50;1.00;;;;;;5051915;28;20031;-71
2024/01/31 02:06:07;;;;;;;3.85;1.05;;;;;;;;;;5051532;28;20441;-74
2024/01/31 02:08:33;;;;;;;6.38;1.15;;;;;;;;;;5051009;28;20037;-74
2024/01/31 02:10:59;;;;;;;3.35;1.27;;;34.40;1.00;;;;;;5051692;28;20106;-74
2024/01/31 02:13:25;;;;;;;5.22;0.93;;;;;;;;;;5051444;28;20512;-74
2024/01/31 02:15:57;;;;;;;8.15;1.35;;;34.40;1.00;;;;;;5051463;28;20037;-74
2024/01/31 02:18:24;;;;;;;4.37;0.97;;;34.00;1.00;;;;;;5050572;28;20562;-74
2024/01/31 02:20:50;;;;;;;6.80;0.80;;;33.90;1.00;;;;;;5048918;28;20635;-71
2024/01/31 02:23:16;;;;;;;5.50;1.10;;;33.90;1.00;;;;;;5051618;28;20029;-71
2024/01/31 02:25:42;;;;;;;4.38;0.93;;;34.00;1.00;;;;;;5051577;28;20524;-71
2024/01/31 02:28:07;;;;;;;6.97;1.15;;;34.10;1.00;;;;;;5050506;28;20029;-71
2024/01/31 02:30:33;;;;;;;12.43;1.40;;;;;;;;;;5051250;28;20485;-71
2024/01/31 02:32:59;;;;;;;5.78;1.27;;;;;;;;;;5051570;28;20111;-71
2024/01/31 02:35:25;;;;;;;8.50;1.00;;;;;;;;;;5051386;28;20841;-71
2024/01/31 02:37:51;;;;;;;3.92;0.98;;;33.70;1.00;;;;;;5046846;28;20682;-71
2024/01/31 02:40:17;;;;;;;3.58;1.10;;;33.70;1.00;;;;;;5051127;28;20040;-71
2024/01/31 02:42:43;;;;;;;7.47;1.33;;;33.60;1.00;;;;;;5051107;28;20407;-72
2024/01/31 02:45:09;;;;;;;5.22;1.00;;;;;;;;;;5051154;28;20039;-71
2024/01/31 02:47:35;;;;;;;6.70;2.20;;;;;;;;;;5050707;28;20071;-71
2024/01/31 02:50:02;;;;;;;6.65;1.00;;;33.70;1.00;;;;;;5050976;28;20041;-72
2024/01/31 02:52:27;;;;;;;9.55;1.25;;;33.50;1.00;;;;;;5051400;28;20043;-71
2024/01/31 02:54:53;;;;;;;6.22;1.05;;;;;;;;;;5051134;28;20059;-71
2024/01/31 02:57:19;;;;;;;7.03;0.90;;;33.20;1.00;;;;;;5050606;28;20047;-71
2024/01/31 02:59:45;;;;;;;4.10;1.00;;;;;;;;;;5051329;28;20086;-71
2024/01/31 03:02:13;;;;;;;2.92;1.25;;;33.00;1.00;;;;;;5051110;28;20071;-71
2024/01/31 03:04:39;;;;;;;4.72;1.20;;;33.20;1.00;;;;;;5050979;28;20484;-72
2024/01/31 03:07:05;;;;;;;6.40;0.93;;;;;;;;;;5050445;28;20167;-71
2024/01/31 03:09:31;;;;;;;3.28;0.98;;;;;;;;;;5050786;28;20037;-71
2024/01/31 03:11:56;;;;;;;2.63;0.98;;;33.00;1.00;;;;;;5050872;28;20041;-71
2024/01/31 03:14:22;;;;;;;6.50;0.95;;;33.10;1.00;;;;;;5050691;28;20047;-71
2024/01/31 03:16:48;;;;;;;2.72;0.75;;;;;;;;;;5050142;28;20044;-71
2024/01/31 03:19:15;;;;;;;4.70;0.95;;;;;;;;;;5051731;28;20073;-72
2024/01/31 03:21:41;;;;;;;7.38;0.93;;;33.20;1.00;;;;;;5054884;28;20040;-71
2024/01/31 03:24:07;;;;;;;7.00;0.90;;;33.10;1.00;;;;;;5054754;28;20037;-71
2024/01/31 03:26:33;;;;;;;6.03;0.80;;;;;;;;;;5054717;28;20166;-71
2024/01/31 03:29:01;;;;;;;4.70;1.13;;;33.10;1.00;;;;;;5053715;28;20049;-71
2024/01/31 03:31:27;;;;;;;4.05;0.88;;;;;;;;;;5054823;28;20107;-71
2024/01/31 03:33:53;;;;;;;4.30;0.93;;;;;;;;;;5054675;28;20041;-71
2024/01/31 03:36:19;;;;;;;4.25;0.90;;;33.10;1.00;;;;;;5054412;28;20118;-71
2024/01/31 03:38:45;;;;;;;5.82;0.90;;;33.30;1.00;;;;;;5053473;28;20133;-71
2024/01/31 03:41:11;;;;;;;2.92;1.00;;;;;;;;;;5054439;28;20060;-71
2024/01/31 03:43:37;;;;;;;3.90;0.85;;;;;;;;;;5054095;28;20095;-72
2024/01/31 03:46:06;;;;;;;2.70;0.70;;;;;;;;;;5054405;28;20050;-72
2024/01/31 03:48:32;;;;;;;6.40;0.80;;;;;;;;;;5050909;28;20044;-72
2024/01/31 03:50:58;;;;;;;3.35;0.75;;;;;;;;;;5054090;28;20040;-72
2024/01/31 03:53:27;;;;;;;3.28;0.60;;;33.20;1.00;;;;;;5054277;28;20115;-72
2024/01/31 03:55:52;;;;;;;3.33;0.70;;;33.00;1.00;;;;;;5051458;28;20112;-72
2024/01/31 03:58:18;;;;;;;5.30;0.80;;;;;;;;;;5053370;28;20462;-72
2024/01/31 04:00:44;;;;;;;5.78;0.90;;;33.20;1.00;;;;;;5053953;28;20044;-72
2024/01/31 04:03:10;;;;;;;2.92;0.70;;;;;;;;;;5053970;28;20086;-72
2024/01/31 04:05:36;;;;;;;3.08;0.50;;;33.40;1.00;;;;;;5053886;28;20439;-72
2024/01/31 04:08:02;;;;;;;2.28;0.63;;;;;;;;;;5053110;28;20097;-72
2024/01/31 04:10:28;;;;;;;3.08;0.70;;;;;;;;;;5053670;28;20033;-72
2024/01/31 04:12:54;;;;;;;4.85;0.70;;;;;;;;;;5053982;28;20037;-72
2024/01/31 04:15:20;;;;;;;3.15;1.02;;;;;;;;;;5053916;28;20036;-72
2024/01/31 04:17:46;;;;;;;4.10;0.90;;;;;;;;;;5053105;28;20037;-72
2024/01/31 04:20:12;;;;;;;5.00;0.88;;;;;;;;;;5050912;28;20095;-71
2024/01/31 04:22:39;;;;;;;6.07;1.17;;;;;;;;;;5053690;28;20041;-72
2024/01/31 04:25:05;;;;;;;4.55;1.50;;;;;;;;;;5053450;28;20119;-72
2024/01/31 04:27:31;;;;;;;4.43;1.40;;;33.30;1.00;;;;;;5053061;28;20033;-72
2024/01/31 04:29:57;;;;;;;3.88;0.75;;;;;;;;;;5052129;28;20095;-72
2024/01/31 04:32:24;;;;;;;3.53;1.10;;;;;;;;;;5053337;28;20099;-72
2024/01/31 04:34:50;;;;;;;7.72;1.25;;;33.30;1.00;;;;;;5053350;28;20036;-72
2024/01/31 04:37:16;;;;;;;6.15;1.15;;;;;;;;;;5052761;28;20047;-72
2024/01/31 04:39:42;;;;;;;5.20;1.33;;;33.40;1.00;;;;;;5052766;28;20045;-72
2024/01/31 04:42:08;;;;;;;4.00;1.48;;;33.40;1.00;;;;;;5053358;28;20033;-72
2024/01/31 04:44:34;;;;;;;3.67;1.17;;;33.20;1.00;;;;;;5053370;28;20080;-72
2024/01/31 04:47:00;;;;;;;4.80;1.42;;;;;;;;;;5052500;28;20033;-72
2024/01/31 04:49:26;;;;;;;7.97;1.67;;;;;;;;;;5052993;28;20370;-72
2024/01/31 04:51:53;;;;;;;6.25;1.55;;;33.30;1.00;;;;;;5053079;28;20450;-72
2024/01/31 04:54:19;;;;;;;3.55;1.30;;;33.30;1.00;;;;;;5052942;28;20090;-72
2024/01/31 04:56:44;;;;;;;9.77;1.67;;;33.50;1.00;;;;;;5052753;28;20044;-72
2024/01/31 04:59:10;;;;;;;1.92;1.30;;;;;;;;;;5052176;28;20044;-72
2024/01/31 05:01:36;;;;;;;8.20;1.65;;;;;;;;;;5052961;28;20033;-72
2024/01/31 05:04:03;;;;;;;6.40;1.42;;;;;;;;;;5052873;28;20040;-72
2024/01/31 05:06:28;;;;;;;2.65;1.20;;;33.30;1.00;;;;;;5052816;28;20119;-72
2024/01/31 05:08:54;;;;;;;3.90;1.20;;;;;;;;;;5051787;28;20084;-72
2024/01/31 05:11:20;;;;;;;5.40;1.88;;;;;;;;;;5053022;28;20041;-72
2024/01/31 05:13:46;;;;;;;5.28;1.20;;;;;;;;;;5052886;28;20127;-72
2024/01/31 05:16:12;;;;;;;6.78;1.30;;;;;;;;;;5052794;28;20112;-72
2024/01/31 05:18:39;;;;;;;10.68;1.67;;;33.60;1.00;;;;;;5051856;28;20044;-72
2024/01/31 05:21:08;;;;;;;5.82;1.40;;;;;;;;;;5052718;28;20033;-72
2024/01/31 05:23:34;;;;;;;7.43;1.58;;;;;;;;;;5049931;28;20064;-72
2024/01/31 05:25:59;;;;;;;12.57;1.52;;;33.20;1.00;;;;;;5052465;28;20029;-72
2024/01/31 05:28:25;;;;;;;12.23;2.55;;;;;;;;;;5051678;28;20564;-72
2024/01/31 05:30:51;;;;;;;5.43;1.20;;;;;;;;;;5052327;28;20119;-72
2024/01/31 05:33:17;;;;;;;4.22;1.20;;;;;;;;;;5052325;28;20129;-72
2024/01/31 05:35:43;;;;;;;6.80;1.58;;;;;;;;;;5049344;28;20721;-72
2024/01/31 05:38:09;;;;;;;15.07;2.55;;;;;;;;;;5049874;28;20052;-72
2024/01/31 05:40:38;;;;;;;8.55;1.52;;;33.40;1.00;;;;;;5052244;28;20095;-72
2024/01/31 05:43:04;;;;;;;8.68;1.67;;;;;;;;;;5052117;28;20540;-72
2024/01/31 05:45:30;;;;;;;8.30;2.55;;;;;;;;;;5052030;28;20037;-71
2024/01/31 05:47:56;;;;;;;9.85;1.73;;;33.50;1.00;;;;;;5051307;28;20037;-71
2024/01/31 05:50:21;;;;;;;5.32;1.20;;;;;;;;;;5051849;28;20033;-71
2024/01/31 05:52:47;;;;;;;7.07;1.25;;;;;;;;;;5052145;28;20189;-71
2024/01/31 05:55:15;;;;;;;9.43;1.55;;;;;;;;;;5052113;28;20412;-71
2024/01/31 05:57:41;;;;;;;6.80;1.83;;;;;;;;;;5051278;28;20041;-71
2024/01/31 06:00:09;;;;;;;7.30;1.40;;;;;;;;;;5051635;28;20049;-71
2024/01/31 06:02:35;;;;;;;4.18;1.25;;;;;;;;;;5049425;28;20051;-71
2024/01/31 06:05:01;;;;;;;7.10;1.60;;;;;;;;;;5051678;28;20025;-71
2024/01/31 06:07:28;;;;;;;8.05;2.45;;;;;;;;;;5051336;28;20461;-71
2024/01/31 06:09:54;;;;;;;4.78;1.67;;;;;;;;;;5051563;28;20064;-71
2024/01/31 06:12:20;;;;;;;8.77;1.42;;;33.30;1.00;;;;;;5051805;28;20497;-71
2024/01/31 06:14:45;;;;;;;6.55;1.60;;;;;;;;;;5051701;28;20041;-71
2024/01/31 06:17:14;;;;;;;8.40;1.98;;;;;;;;;;5050970;28;20076;-71
2024/01/31 06:19:40;;;;;;;4.38;1.52;;;;;;;;;;5051232;28;20048;-71
2024/01/31 06:22:07;;;;;;;4.10;1.20;;;;;;;;;;5051453;28;20484;-71
2024/01/31 06:24:33;;;;;;;14.85;2.42;;;33.00;1.00;;;;;;5048672;28;20049;-71
2024/01/31 06:26:58;;;;;;;10.02;1.60;;;33.00;1.00;;;;;;5051240;28;20039;-71
2024/01/31 06:29:24;;;;;;;6.57;2.00;;;;;;;;;;5051264;28;20182;-71
2024/01/31 06:31:52;;;;;;;5.93;1.50;;;33.40;1.00;;;;;;5051646;28;20041;-71
2024/01/31 06:34:18;;;;;;;10.43;1.92;;;;;;;;;;5051545;28;20246;-71
2024/01/31 06:36:44;;;;;;;4.78;1.45;;;;;;;;;;5051798;28;20075;-71
2024/01/31 06:39:11;;;;;;;6.50;1.80;;;;;;;;;;5051152;28;20041;-71
2024/01/31 06:41:37;;;;;;;6.03;1.65;;;33.50;1.00;;;;;;5051790;28;20043;-71
2024/01/31 06:44:03;;;;;;;8.00;1.88;;;;;;;;;;5051557;28;20088;-71
2024/01/31 06:46:29;;;;;;;12.25;1.75;;;33.20;1.00;;;;;;5051531;28;20557;-70
2024/01/31 06:48:56;;;;;;;7.72;1.50;;;;;;;;;;5050623;28;20048;-70
2024/01/31 06:51:22;;;;;;;5.47;1.40;;;33.40;1.00;;;;;;5051706;28;20111;-71
2024/01/31 06:53:48;;;;;;;4.68;1.20;;;33.60;1.00;;;;;;5049301;28;20049;-71
2024/01/31 06:56:17;;;;;;;8.15;1.40;;;33.70;1.00;;;;;;5051497;28;20041;-71
2024/01/31 06:58:52;;;;;;;6.57;1.50;;;33.70;1.00;;;;;;5049707;28;20067;-71
2024/01/31 07:01:19;;;;;;;9.82;2.08;;;;;;;;;;5050721;28;20033;-73
2024/01/31 07:03:45;;;;;;;7.32;2.40;;;;;;;;;;5051003;28;20032;-71
2024/01/31 07:06:12;;;;;;;7.28;1.67;;;;;;;;;;5051662;28;20067;-71
2024/01/31 07:08:39;;;;;;;7.10;1.42;;;;;;;;;;5050305;28;20045;-71
2024/01/31 07:11:08;;;;;;;4.10;1.25;;;33.40;1.00;;;;;;5051252;28;20049;-71
2024/01/31 07:13:35;;;;;;;4.40;1.60;;;;;;;;;;5051030;28;20404;-73
2024/01/31 07:16:05;;;;;;;8.05;1.55;;;;;;;;;;5050754;28;20115;-72
2024/01/31 07:18:33;;;;;;;6.22;1.40;;;;;;;;;;5044770;28;20050;-71
2024/01/31 07:20:59;;;;;;;2.90;1.45;;;;;;;;;;5047878;28;20051;-71
2024/01/31 07:23:25;;;;;;;3.88;1.60;;;;;;;;;;5041393;28;20416;-72
2024/01/31 07:25:51;;;;;;;6.78;1.58;;;;;;;;;;5040849;28;20065;-72
2024/01/31 07:28:17;;;;;;;7.60;1.80;;;;;;;;;;5041544;28;20476;-72
2024/01/31 07:30:43;;;;;;;7.78;2.05;;;;;;;;;;5043994;28;20029;-72
2024/01/31 07:33:09;;;;;;;5.72;1.88;;;;;;;;;;5042724;28;20048;-72
2024/01/31 07:35:35;;;;;;;5.43;2.13;;;;;;;;;;5046294;28;20378;-72
2024/01/31 07:38:01;;;;;;;3.40;1.73;;;;;;;;;;5041068;28;20041;-73
2024/01/31 07:40:27;;;;;;;8.38;2.17;;;;;;;;;;5030726;28;20053;-73
2024/01/31 07:42:53;;;;;;;6.07;1.95;;;;;;;;;;5045211;28;20032;-73
2024/01/31 07:45:19;;;;;;;7.20;1.90;;;;;;;;;;5048405;28;20624;-73
2024/01/31 07:47:45;;;;;;;5.28;1.70;;;;;;;;;;5045081;28;20056;-73
2024/01/31 07:50:11;;;;;;;4.68;2.00;;;;;;;;;;5047849;28;20422;-73
2024/01/31 07:52:37;;;;;;;10.90;2.40;;;;;;;;;;5048014;28;20112;-73
2024/01/31 07:55:04;;;;;;;5.57;1.83;;;;;;;;;;5045901;28;20167;-73
2024/01/31 07:57:30;;;;;;;8.95;2.10;;;;;;;;;;5045784;28;20053;-73
2024/01/31 07:59:56;;;;;;;10.00;2.58;;;;;;;;;;5047588;28;20041;-73
2024/01/31 08:02:21;;;;;;;7.55;2.80;;;;;;;;;;5047883;28;20056;-73
2024/01/31 08:04:47;;;;;;;5.38;2.53;;;;;;;;;;5045156;28;20065;-73
2024/01/31 08:07:13;;;;;;;4.88;2.85;;;34.20;1.00;;;;;;5045394;28;20401;-73
2024/01/31 08:09:39;;;;;;;5.35;2.63;;;34.40;1.00;;;;;;5043885;28;20083;-72
2024/01/31 08:12:06;;;;;;;7.63;3.08;;;;;;;;;;5047100;28;20049;-74
2024/01/31 08:14:32;;;;;;;5.57;2.75;;;;;;;;;;5039349;28;20555;-74
2024/01/31 08:16:58;;;;;;;7.03;3.67;;;;;;;;;;5042171;28;20044;-74
2024/01/31 08:19:24;;;;;;;5.68;2.80;;;34.40;1.00;;;;;;5044833;28;20049;-74
2024/01/31 08:21:50;;;;;;;5.95;3.08;;;;;;;;;;5040829;28;20496;-73
2024/01/31 08:24:16;;;;;;;7.07;3.17;;;;;;;;;;5044554;28;20124;-74
2024/01/31 08:26:42;;;;;;;5.55;3.22;;;;;;;;;;5043492;28;20032;-73
2024/01/31 08:29:08;;;;;;;8.05;3.65;;;34.70;1.00;;;;;;5039656;28;20393;-73
2024/01/31 08:31:34;;;;;;;11.18;3.92;;;;;;;;;;5049067;28;20086;-74
2024/01/31 08:34:00;;;;;;;7.13;3.42;;;;;;;;;;5049127;28;20048;-74
2024/01/31 08:36:26;;;;;;;5.72;3.17;;;;;;;;;;5043841;28;20053;-74
2024/01/31 08:38:51;;;;;;;5.32;3.80;;;34.60;1.00;;;;;;5041347;28;20489;-74
2024/01/31 08:41:19;;;;;;;9.85;3.85;;;;;;;;;;5049940;28;20120;-74
2024/01/31 08:43:45;;;;;;;8.20;3.58;;;34.60;1.00;;;;;;5038873;28;20296;-74
2024/01/31 08:46:12;;;;;;;7.95;4.55;;;;;;;;;;5044019;28;20161;-74
2024/01/31 08:48:39;;;;;;;9.65;4.38;;;;;;;;;;5043215;28;20046;-74
2024/01/31 08:51:06;;;;;;;7.55;5.05;;;;;;;;;;5045489;28;20080;-74
2024/01/31 08:53:32;;;;;;;7.95;4.78;;;;;;;;;;5050195;28;20052;-74
2024/01/31 08:55:57;;;;;;;5.82;4.72;;;34.90;1.00;;;;;;5045736;28;20048;-73
2024/01/31 08:58:24;;;;;;;10.13;6.25;;;;;;;;;;5039257;28;20037;-74
2024/01/31 09:00:50;;;;;;;7.90;6.00;;;;;;;;;;5049699;28;20041;-72
2024/01/31 09:03:16;;;;;;;9.23;6.63;;;;;;;;;;5053416;28;20044;-73
2024/01/31 09:05:41;;;;;;;9.82;5.75;;;;;;;;;;5053179;28;20037;-74
2024/01/31 09:08:07;;;;;;;8.30;5.78;;;35.10;1.00;;;;;;5052383;28;20040;-74
2024/01/31 09:10:33;;;;;;;9.65;6.43;;;35.10;1.00;;;;;;5052893;28;20116;-73
2024/01/31 09:12:58;;;;;;;10.10;6.70;;;35.00;1.00;;;;;;5052943;28;20040;-74
2024/01/31 09:15:24;;;;;;;13.32;6.65;;;;;;;;;;5052711;28;20037;-73
2024/01/31 09:17:52;;;;;;;9.30;6.78;;;;;;;;;;5051455;28;20420;-74
2024/01/31 09:20:18;;;;;;;10.55;7.78;;;35.20;1.00;;;;;;5052036;28;20056;-73
2024/01/31 09:22:44;;;;;;;9.80;7.28;;;35.10;1.00;;;;;;5053300;28;20036;-73
2024/01/31 09:25:14;;;;;;;10.27;7.10;;;35.10;1.00;;;;;;5052516;28;20444;-72
2024/01/31 09:27:40;;;;;;;11.35;6.78;;;35.30;1.00;;;;;;5052062;28;20055;-73
2024/01/31 09:30:07;;;;;;;9.57;7.40;;;35.30;1.00;;;;;;5052165;28;20408;-73
2024/01/31 09:32:33;;;;;;;8.38;6.78;;;;;;;;;;5048134;28;20033;-73
2024/01/31 09:34:59;;;;;;;10.50;7.53;;;;;;;;;;5032599;28;20044;-74
2024/01/31 09:37:25;;;;;;;11.57;7.25;;;;;;;;;;5031803;28;20103;-74
2024/01/31 09:39:54;;;;;;;10.73;7.25;;;35.30;1.00;;;;;;5032113;28;20168;-73
2024/01/31 09:42:20;;;;;;;9.55;7.55;;;;;;;;;;5032428;28;20045;-73
2024/01/31 09:44:46;;;;;;;10.27;7.15;;;;;;;;;;5032586;28;20045;-74
2024/01/31 09:47:14;;;;;;;12.23;7.30;;;35.30;1.00;;;;;;5031748;28;20129;-73
2024/01/31 09:49:40;;;;;;;12.93;8.27;;;;;;;;;;5032048;28;20535;-74
2024/01/31 09:52:08;;;;;;;11.60;7.43;;;35.60;1.00;;;;;;5032143;28;20045;-73
2024/01/31 09:54:34;;;;;;;13.85;7.80;;;35.60;1.00;;;;;;5032175;28;20524;-73
2024/01/31 09:57:01;;;;;;;12.48;7.57;;;35.50;1.00;;;;;;5031785;28;20045;-73
2024/01/31 09:59:27;;;;;;;9.15;6.63;;;;;;;;;;5031940;28;20052;-73
2024/01/31 10:01:56;;;;;;;11.55;7.78;;;35.60;1.00;;;;;;5032216;28;20065;-74
2024/01/31 10:04:21;;;;;;;11.35;7.55;;;35.50;1.00;;;;;;5032126;28;20036;-73
2024/01/31 10:06:47;;;;;;;10.65;7.43;;;35.60;1.00;;;;;;5031847;28;20033;-73
2024/01/31 10:09:14;;;;;;;9.23;7.00;;;;;;;;;;5031657;28;20037;-73
2024/01/31 10:11:45;;;;;;;8.55;6.45;;;;;;;;;;5032046;28;20503;-74
2024/01/31 10:14:12;;;;;;;8.07;6.10;;;35.50;1.00;;;;;;5032359;28;20044;-73
2024/01/31 10:16:39;;;;;;;9.00;6.40;;;35.60;1.00;;;;;;5030651;28;20471;-73
2024/01/31 10:19:04;;;;;;;9.65;7.30;;;35.60;1.00;;;;;;5030962;28;20041;-74
2024/01/31 10:21:32;;;;;;;8.80;6.25;;;35.60;1.00;;;;;;5031462;28;20041;-74
2024/01/31 10:24:04;;;;;;;8.93;6.30;;;35.70;1.00;;;;;;5031891;28;20175;-74
2024/01/31 10:26:33;;;;;;;9.15;6.05;;;35.70;1.00;;;;;;5031717;28;20490;-73
2024/01/31 10:29:00;;;;;;;8.75;6.68;;;35.60;1.00;;;;;;5030054;28;20045;-73
2024/01/31 10:31:26;;;;;;;8.40;6.05;;;;;;;;;;5031598;28;20056;-73
2024/01/31 10:33:52;;;;;;;9.05;6.72;;;35.80;1.00;;;;;;5046640;28;20524;-73
2024/01/31 10:36:19;;;;;;;10.60;6.72;;;;;;;;;;5051761;28;20163;-73
2024/01/31 10:38:46;;;;;;;9.45;6.30;;;35.80;1.00;;;;;;5050104;28;20041;-74
2024/01/31 10:41:15;;;;;;;9.93;7.05;;;;;;;;;;5051134;28;20417;-73
2024/01/31 10:43:42;;;;;;;8.50;6.35;;;;;;;;;;5050589;28;20386;-73
2024/01/31 10:46:08;;;;;;;7.47;6.50;;;;;;;;;;5050514;28;20512;-73
2024/01/31 10:48:33;;;;;;;8.75;6.65;;;35.70;1.00;;;;;;5049580;28;20072;-73
2024/01/31 10:51:00;;;;;;;9.10;6.38;;;;;;;;;;5050132;28;20112;-74
2024/01/31 10:53:28;;;;;;;8.07;6.05;;;;;;;;;;5049572;28;20465;-73
2024/01/31 10:55:56;;;;;;;10.77;6.63;;;35.60;1.00;;;;;;5050410;28;20048;-74
2024/01/31 10:58:23;;;;;;;9.13;6.07;;;;;;;;;;5049555;28;20037;-73
2024/01/31 11:00:49;;;;;;;12.82;6.10;;;;;;;;;;5050261;28;20037;-74
2024/01/31 11:03:16;;;;;;;7.03;5.30;;;35.80;1.00;;;;;;5050323;28;20488;-73
2024/01/31 11:05:42;;;;;;;7.93;5.65;;;35.80;1.00;;;;;;5048443;28;20076;-72
2024/01/31 11:08:18;;;;;;;8.10;5.47;;;;;;;;;;5049843;28;20033;-73
2024/01/31 11:10:44;;;;;;;6.63;4.93;;;;;;;;;;5050442;28;20504;-73
2024/01/31 11:13:10;;;;;;;7.00;5.35;;;;;;;;;;5050509;28;20090;-73
2024/01/31 11:15:36;;;;;;;8.63;5.10;;;;;;;;;;5050220;28;20132;-73
2024/01/31 11:18:08;;;;;;;6.95;4.93;;;;;;;;;;5049370;28;20201;-72
2024/01/31 11:20:38;;;;;;;8.98;5.22;;;36.00;1.00;;;;;;5047514;28;20063;-73
2024/01/31 11:23:05;;;;;;;8.88;5.10;;;35.90;1.00;;;;;;5050105;28;20045;-74
2024/01/31 11:25:36;;;;;;;6.47;4.53;;;36.00;1.00;;;;;;5049792;28;20048;-73
2024/01/31 11:28:03;;;;;;;7.15;4.85;;;35.80;1.00;;;;;;5048666;28;20083;-73
2024/01/31 11:30:29;;;;;;;6.55;4.75;;;36.00;1.00;;;;;;5048853;28;20045;-73
2024/01/31 11:32:55;;;;;;;6.65;4.65;;;35.70;1.00;;;;;;5050119;28;20052;-73
2024/01/31 11:35:24;;;;;;;5.68;4.22;;;;;;;;;;5050081;28;20515;-73
2024/01/31 11:37:51;;;;;;;7.57;4.47;;;;;;;;;;5012401;28;1044745;-73
2024/01/31 11:40:17;;;;;;;5.30;4.30;;;;;;;;;;5052644;28;20183;-72
2024/01/31 11:42:43;;;;;;;6.18;4.90;;;;;;;;;;5054413;28;20072;-72
2024/01/31 11:45:09;;;;;;;7.43;4.60;;;;;;;;;;5054622;28;20138;-74
2024/01/31 11:47:35;;;;;;;8.30;5.40;;;;;;;;;;5053932;28;20037;-73
2024/01/31 11:50:02;;;;;;;8.85;5.75;;;35.80;1.00;;;;;;5054357;28;20068;-73
2024/01/31 11:52:27;;;;;;;9.50;5.30;;;36.00;1.00;;;;;;5052858;28;20044;-73
2024/01/31 11:54:53;;;;;;;8.85;5.60;;;;;;;;;;5054266;28;20045;-73
2024/01/31 11:57:19;;;;;;;7.60;5.72;;;;;;;;;;5053617;28;20085;-73
2024/01/31 11:59:46;;;;;;;6.95;5.55;;;;;;;;;;5057078;28;20420;-74
2024/01/31 12:02:12;;;;;;;8.90;5.35;;;;;;;;;;5053776;28;20087;-73
2024/01/31 12:04:38;;;;;;;9.20;6.03;;;;;;;;;;5049194;28;20095;-73
2024/01/31 12:07:04;;;;;;;9.15;6.07;;;;;;;;;;5046893;28;20535;-72
2024/01/31 12:09:32;;;;;;;6.70;4.88;;;;;;;;;;5050718;28;20036;-72
2024/01/31 12:11:58;;;;;;;8.93;5.57;;;;;;;;;;5050079;28;20037;-72
2024/01/31 12:14:24;;;;;;;6.43;5.28;;;;;;;;;;5051020;28;20037;-72
2024/01/31 12:16:50;;;;;;;6.65;5.05;;;;;;;;;;5050269;28;20238;-72
2024/01/31 12:19:19;;;;;;;8.38;6.65;;;;;;;;;;5050369;28;20484;-72
2024/01/31 12:21:45;;;;;;;6.85;5.63;;;;;;;;;;5044515;28;20090;-72
2024/01/31 12:24:11;;;;;;;6.82;5.57;;;;;;;;;;5049992;28;20045;-72
2024/01/31 12:26:38;;;;;;;8.27;5.43;;;;;;;;;;5044408;28;20520;-71
2024/01/31 12:29:03;;;;;;;6.97;5.55;;;36.00;1.00;;;;;;5039535;28;20581;-72
2024/01/31 12:31:29;;;;;;;6.93;6.00;;;;;;;;;;5049623;28;20044;-71
2024/01/31 12:33:56;;;;;;;9.00;6.22;;;;;;;;;;5046554;28;20044;-72
2024/01/31 12:36:22;;;;;;;7.45;5.82;;;;;;;;;;5046966;28;20052;-72
2024/01/31 12:38:48;;;;;;;6.93;5.50;;;;;;;;;;5049441;28;20416;-68
2024/01/31 12:41:14;;;;;;;10.18;5.72;;;;;;;;;;5050925;28;20143;-71
2024/01/31 12:43:40;;;;;;;11.18;6.05;;;;;;;;;;5050291;28;20115;-71
2024/01/31 12:46:06;;;;;;;7.55;5.43;;;;;;;;;;5050555;28;20642;-71
2024/01/31 12:48:32;;;;;;;9.68;6.10;;;;;;;;;;5047022;28;20090;-72
2024/01/31 12:50:58;;;;;;;7.15;5.50;;;;;;;;;;5048066;28;20036;-71
2024/01/31 12:53:24;;;;;;;7.80;5.18;;;;;;;;;;5052157;28;20037;-71
2024/01/31 12:55:50;;;;;;;7.22;5.57;;;;;;;;;;5051766;28;20032;-71
2024/01/31 12:58:17;;;;;;;9.43;6.93;;;;;;;;;;5051562;28;20044;-72
2024/01/31 13:00:43;;;;;;;7.20;6.00;;;;;;;;;;5052220;28;20085;-71
2024/01/31 13:03:09;;;;;;;10.98;6.38;;;;;;;;;;5052680;28;20060;-71
2024/01/31 13:05:35;;;;;;;8.32;5.78;;;;;;;;;;5052815;28;20120;-71
2024/01/31 13:08:00;;;;;;;8.55;6.28;;;36.10;1.00;;;;;;5051633;28;20440;-72
2024/01/31 13:10:26;;;;;;;9.52;6.70;;;;;;;;;;5053019;28;20103;-72
2024/01/31 13:12:52;;;;;;;8.23;6.57;;;;;;;;;;5053314;28;20048;-72
2024/01/31 13:15:19;;;;;;;9.23;7.00;;;;;;;;;;5053184;28;20500;-72
2024/01/31 13:17:45;;;;;;;8.82;6.75;;;;;;;;;;5051235;28;20052;-72
2024/01/31 13:20:11;;;;;;;8.15;6.45;;;36.20;1.00;;;;;;5053063;28;20126;-72
2024/01/31 13:22:37;;;;;;;9.10;7.20;;;;;;;;;;5052689;28;20033;-72
2024/01/31 13:25:05;;;;;;;10.00;7.10;;;36.20;1.00;;;;;;5052887;28;20049;-72
2024/01/31 13:27:31;;;;;;;9.32;7.78;;;36.30;1.00;;;;;;5052260;28;20039;-72
2024/01/31 13:29:57;;;;;;;9.07;7.28;;;36.30;1.00;;;;;;5052455;28;20120;-72
2024/01/31 13:32:23;;;;;;;8.85;7.32;;;;;;;;;;5052535;28;20037;-71
2024/01/31 13:34:48;;;;;;;8.45;6.50;;;36.40;1.00;;;;;;5052586;28;20049;-72
2024/01/31 13:37:14;;;;;;;11.52;7.65;;;;;;;;;;5052230;28;20099;-72
2024/01/31 13:39:40;;;;;;;11.20;7.20;;;;;;;;;;5051920;28;20053;-71
2024/01/31 13:42:06;;;;;;;9.20;7.13;;;36.20;1.00;;;;;;5052804;28;20745;-72
2024/01/31 13:44:33;;;;;;;8.68;6.85;;;36.50;1.00;;;;;;5052549;28;20029;-72
2024/01/31 13:46:59;;;;;;;9.88;7.82;;;;;;;;;;5051857;28;20443;-72
2024/01/31 13:49:24;;;;;;;11.30;7.55;;;36.40;1.00;;;;;;5052225;28;20041;-72
2024/01/31 13:51:50;;;;;;;14.15;8.57;;;;;;;;;;5052249;28;20386;-72